sensor_id;sensor_type;location;lat;lon;timestamp;P1;durP1;ratioP1;P2;durP2;ratioP2
9174;SDS011;54374;50.196;8.050;2022-09-09T00:01:57;2.35;;;0.80;;
9174;SDS011;54374;50.196;8.050;2022-09-09T00:04:29;1.80;;;0.80;;
9174;SDS011;54374;50.196;8.050;2022-09-09T00:07:03;0.77;;;0.77;;
9174;SDS011;54374;50.196;8.050;2022-09-09T00:09:36;2.13;;;1.13;;
9174;SDS011;54374;50.196;8.050;2022-09-09T00:12:12;0.98;;;0.98;;
9174;SDS011;54374;50.196;8.050;2022-09-09T00:14:45;4.50;;;1.15;;
9174;SDS011;54374;50.196;8.050;2022-09-09T00:17:19;3.05;;;1.08;;
9174;SDS011;54374;50.196;8.050;2022-09-09T00:19:53;3.35;;;1.13;;
9174;SDS011;54374;50.196;8.050;2022-09-09T00:22:27;4.13;;;0.90;;
9174;SDS011;54374;50.196;8.050;2022-09-09T00:24:58;2.25;;;1.00;;
9174;SDS011;54374;50.196;8.050;2022-09-09T00:27:39;3.85;;;1.20;;
9174;SDS011;54374;50.196;8.050;2022-09-09T00:30:15;0.82;;;0.82;;
9174;SDS011;54374;50.196;8.050;2022-09-09T00:32:45;0.60;;;0.60;;
9174;SDS011;54374;50.196;8.050;2022-09-09T00:35:17;3.90;;;1.05;;
9174;SDS011;54374;50.196;8.050;2022-09-09T00:37:48;1.08;;;0.80;;
9174;SDS011;54374;50.196;8.050;2022-09-09T00:40:22;2.83;;;1.00;;
9174;SDS011;54374;50.196;8.050;2022-09-09T00:42:58;1.20;;;0.80;;
9174;SDS011;54374;50.196;8.050;2022-09-09T00:48:38;5.50;;;1.25;;
9174;SDS011;54374;50.196;8.050;2022-09-09T00:51:19;3.33;;;0.90;;
9174;SDS011;54374;50.196;8.050;2022-09-09T00:53:58;3.10;;;1.02;;
9174;SDS011;54374;50.196;8.050;2022-09-09T00:56:45;1.52;;;0.90;;
9174;SDS011;54374;50.196;8.050;2022-09-09T00:59:24;3.25;;;1.20;;
9174;SDS011;54374;50.196;8.050;2022-09-09T01:01:58;3.75;;;0.93;;
9174;SDS011;54374;50.196;8.050;2022-09-09T01:04:28;1.13;;;0.80;;
9174;SDS011;54374;50.196;8.050;2022-09-09T01:07:06;3.92;;;0.80;;
9174;SDS011;54374;50.196;8.050;2022-09-09T01:09:42;2.33;;;1.10;;
9174;SDS011;54374;50.196;8.050;2022-09-09T01:12:24;3.45;;;0.95;;
9174;SDS011;54374;50.196;8.050;2022-09-09T01:15:09;2.35;;;0.90;;
9174;SDS011;54374;50.196;8.050;2022-09-09T01:17:49;2.15;;;1.35;;
9174;SDS011;54374;50.196;8.050;2022-09-09T01:20:21;1.65;;;0.95;;
9174;SDS011;54374;50.196;8.050;2022-09-09T01:23:04;3.47;;;1.10;;
9174;SDS011;54374;50.196;8.050;2022-09-09T01:26:07;1.88;;;0.98;;
9174;SDS011;54374;50.196;8.050;2022-09-09T01:28:42;2.30;;;1.13;;
9174;SDS011;54374;50.196;8.050;2022-09-09T01:31:14;2.35;;;1.00;;
9174;SDS011;54374;50.196;8.050;2022-09-09T01:33:46;1.50;;;1.15;;
9174;SDS011;54374;50.196;8.050;2022-09-09T01:36:15;2.08;;;1.00;;
9174;SDS011;54374;50.196;8.050;2022-09-09T01:38:50;3.10;;;1.25;;
9174;SDS011;54374;50.196;8.050;2022-09-09T01:41:19;2.65;;;1.00;;
9174;SDS011;54374;50.196;8.050;2022-09-09T01:43:59;4.93;;;1.05;;
9174;SDS011;54374;50.196;8.050;2022-09-09T01:46:28;2.15;;;1.10;;
9174;SDS011;54374;50.196;8.050;2022-09-09T01:48:56;2.55;;;1.27;;
9174;SDS011;54374;50.196;8.050;2022-09-09T01:51:26;1.15;;;1.00;;
9174;SDS011;54374;50.196;8.050;2022-09-09T01:53:54;4.85;;;1.13;;
9174;SDS011;54374;50.196;8.050;2022-09-09T01:56:26;1.17;;;0.90;;
9174;SDS011;54374;50.196;8.050;2022-09-09T01:59:11;4.60;;;1.33;;
9174;SDS011;54374;50.196;8.050;2022-09-09T02:01:53;2.88;;;1.10;;
9174;SDS011;54374;50.196;8.050;2022-09-09T02:04:35;1.13;;;0.90;;
9174;SDS011;54374;50.196;8.050;2022-09-09T02:07:19;2.47;;;1.10;;
9174;SDS011;54374;50.196;8.050;2022-09-09T02:09:57;3.35;;;1.20;;
9174;SDS011;54374;50.196;8.050;2022-09-09T02:12:30;3.78;;;0.95;;
9174;SDS011;54374;50.196;8.050;2022-09-09T02:15:01;5.30;;;1.42;;
9174;SDS011;54374;50.196;8.050;2022-09-09T02:17:40;0.95;;;0.73;;
9174;SDS011;54374;50.196;8.050;2022-09-09T02:20:14;1.05;;;0.80;;
9174;SDS011;54374;50.196;8.050;2022-09-09T02:22:50;2.78;;;1.00;;
9174;SDS011;54374;50.196;8.050;2022-09-09T02:25:21;2.85;;;1.00;;
9174;SDS011;54374;50.196;8.050;2022-09-09T02:27:54;3.03;;;0.90;;
9174;SDS011;54374;50.196;8.050;2022-09-09T02:30:23;2.78;;;1.08;;
9174;SDS011;54374;50.196;8.050;2022-09-09T02:32:55;5.45;;;1.73;;
9174;SDS011;54374;50.196;8.050;2022-09-09T02:35:37;1.50;;;1.10;;
9174;SDS011;54374;50.196;8.050;2022-09-09T02:38:07;2.78;;;0.82;;
9174;SDS011;54374;50.196;8.050;2022-09-09T02:40:41;3.88;;;1.30;;
9174;SDS011;54374;50.196;8.050;2022-09-09T02:43:10;1.10;;;1.00;;
9174;SDS011;54374;50.196;8.050;2022-09-09T02:45:39;10.07;;;1.30;;
9174;SDS011;54374;50.196;8.050;2022-09-09T02:48:14;1.77;;;1.13;;
9174;SDS011;54374;50.196;8.050;2022-09-09T02:50:53;1.60;;;1.08;;
9174;SDS011;54374;50.196;8.050;2022-09-09T02:53:30;0.93;;;0.80;;
9174;SDS011;54374;50.196;8.050;2022-09-09T02:56:04;3.90;;;1.45;;
9174;SDS011;54374;50.196;8.050;2022-09-09T02:58:40;6.13;;;1.05;;
9174;SDS011;54374;50.196;8.050;2022-09-09T03:01:08;0.93;;;0.93;;
9174;SDS011;54374;50.196;8.050;2022-09-09T03:03:35;2.78;;;1.00;;
9174;SDS011;54374;50.196;8.050;2022-09-09T03:06:08;2.75;;;0.80;;
9174;SDS011;54374;50.196;8.050;2022-09-09T03:08:35;2.20;;;1.00;;
9174;SDS011;54374;50.196;8.050;2022-09-09T03:11:03;3.92;;;1.13;;
9174;SDS011;54374;50.196;8.050;2022-09-09T03:13:33;3.42;;;1.23;;
9174;SDS011;54374;50.196;8.050;2022-09-09T03:16:02;2.50;;;1.30;;
9174;SDS011;54374;50.196;8.050;2022-09-09T03:18:34;1.63;;;1.00;;
9174;SDS011;54374;50.196;8.050;2022-09-09T03:21:01;4.00;;;1.15;;
9174;SDS011;54374;50.196;8.050;2022-09-09T03:23:29;3.55;;;1.25;;
9174;SDS011;54374;50.196;8.050;2022-09-09T03:25:59;1.42;;;0.90;;
9174;SDS011;54374;50.196;8.050;2022-09-09T03:28:37;5.13;;;1.05;;
9174;SDS011;54374;50.196;8.050;2022-09-09T03:31:06;1.73;;;1.20;;
9174;SDS011;54374;50.196;8.050;2022-09-09T03:33:38;1.40;;;1.00;;
9174;SDS011;54374;50.196;8.050;2022-09-09T03:36:06;4.47;;;1.25;;
9174;SDS011;54374;50.196;8.050;2022-09-09T03:38:34;4.70;;;1.45;;
9174;SDS011;54374;50.196;8.050;2022-09-09T03:41:01;4.43;;;1.10;;
9174;SDS011;54374;50.196;8.050;2022-09-09T03:43:32;4.28;;;1.55;;
9174;SDS011;54374;50.196;8.050;2022-09-09T03:45:59;4.82;;;1.10;;
9174;SDS011;54374;50.196;8.050;2022-09-09T03:48:29;3.40;;;1.20;;
9174;SDS011;54374;50.196;8.050;2022-09-09T03:50:57;7.38;;;1.80;;
9174;SDS011;54374;50.196;8.050;2022-09-09T03:53:27;2.20;;;1.23;;
9174;SDS011;54374;50.196;8.050;2022-09-09T03:55:55;4.15;;;1.25;;
9174;SDS011;54374;50.196;8.050;2022-09-09T03:58:26;3.28;;;1.20;;
9174;SDS011;54374;50.196;8.050;2022-09-09T04:00:59;1.25;;;1.05;;
9174;SDS011;54374;50.196;8.050;2022-09-09T04:03:28;4.95;;;0.70;;
9174;SDS011;54374;50.196;8.050;2022-09-09T04:05:57;3.80;;;1.20;;
9174;SDS011;54374;50.196;8.050;2022-09-09T04:08:28;2.03;;;1.15;;
9174;SDS011;54374;50.196;8.050;2022-09-09T04:10:57;4.60;;;1.42;;
9174;SDS011;54374;50.196;8.050;2022-09-09T04:13:27;2.83;;;2.05;;
9174;SDS011;54374;50.196;8.050;2022-09-09T04:15:56;4.75;;;1.60;;
9174;SDS011;54374;50.196;8.050;2022-09-09T04:18:24;2.75;;;1.20;;
9174;SDS011;54374;50.196;8.050;2022-09-09T04:20:54;1.40;;;1.30;;
9174;SDS011;54374;50.196;8.050;2022-09-09T04:23:24;2.72;;;1.13;;
9174;SDS011;54374;50.196;8.050;2022-09-09T04:25:54;2.78;;;1.00;;
9174;SDS011;54374;50.196;8.050;2022-09-09T04:28:22;2.15;;;1.40;;
9174;SDS011;54374;50.196;8.050;2022-09-09T04:30:50;3.40;;;1.20;;
9174;SDS011;54374;50.196;8.050;2022-09-09T04:33:18;2.45;;;1.50;;
9174;SDS011;54374;50.196;8.050;2022-09-09T04:35:48;2.55;;;0.90;;
9174;SDS011;54374;50.196;8.050;2022-09-09T04:38:21;2.88;;;0.90;;
9174;SDS011;54374;50.196;8.050;2022-09-09T04:40:49;2.42;;;1.10;;
9174;SDS011;54374;50.196;8.050;2022-09-09T04:43:19;2.13;;;1.10;;
9174;SDS011;54374;50.196;8.050;2022-09-09T04:45:48;1.75;;;0.98;;
9174;SDS011;54374;50.196;8.050;2022-09-09T04:48:19;1.25;;;1.15;;
9174;SDS011;54374;50.196;8.050;2022-09-09T04:50:55;2.78;;;1.20;;
9174;SDS011;54374;50.196;8.050;2022-09-09T04:53:24;1.23;;;1.10;;
9174;SDS011;54374;50.196;8.050;2022-09-09T04:55:53;5.15;;;1.55;;
9174;SDS011;54374;50.196;8.050;2022-09-09T04:58:29;12.77;;;3.40;;
9174;SDS011;54374;50.196;8.050;2022-09-09T05:01:02;1.30;;;1.20;;
9174;SDS011;54374;50.196;8.050;2022-09-09T05:03:31;4.18;;;1.50;;
9174;SDS011;54374;50.196;8.050;2022-09-09T05:06:02;2.55;;;1.30;;
9174;SDS011;54374;50.196;8.050;2022-09-09T05:08:36;7.43;;;1.50;;
9174;SDS011;54374;50.196;8.050;2022-09-09T05:11:12;1.17;;;1.08;;
9174;SDS011;54374;50.196;8.050;2022-09-09T05:13:41;13.05;;;1.90;;
9174;SDS011;54374;50.196;8.050;2022-09-09T05:16:08;1.02;;;1.00;;
9174;SDS011;54374;50.196;8.050;2022-09-09T05:18:36;2.00;;;1.20;;
9174;SDS011;54374;50.196;8.050;2022-09-09T05:21:04;4.80;;;1.17;;
9174;SDS011;54374;50.196;8.050;2022-09-09T05:23:31;4.82;;;1.10;;
9174;SDS011;54374;50.196;8.050;2022-09-09T05:26:00;2.35;;;1.20;;
9174;SDS011;54374;50.196;8.050;2022-09-09T05:28:29;1.35;;;1.25;;
9174;SDS011;54374;50.196;8.050;2022-09-09T05:30:57;4.20;;;1.40;;
9174;SDS011;54374;50.196;8.050;2022-09-09T05:33:27;2.60;;;1.55;;
9174;SDS011;54374;50.196;8.050;2022-09-09T05:35:58;5.50;;;1.55;;
9174;SDS011;54374;50.196;8.050;2022-09-09T05:38:28;1.80;;;1.40;;
9174;SDS011;54374;50.196;8.050;2022-09-09T05:40:56;2.25;;;1.27;;
9174;SDS011;54374;50.196;8.050;2022-09-09T05:43:25;1.15;;;1.02;;
9174;SDS011;54374;50.196;8.050;2022-09-09T05:46:01;3.30;;;1.60;;
9174;SDS011;54374;50.196;8.050;2022-09-09T05:48:29;1.40;;;1.30;;
9174;SDS011;54374;50.196;8.050;2022-09-09T05:50:58;3.25;;;1.50;;
9174;SDS011;54374;50.196;8.050;2022-09-09T05:53:25;1.95;;;1.30;;
9174;SDS011;54374;50.196;8.050;2022-09-09T05:56:00;4.85;;;1.55;;
9174;SDS011;54374;50.196;8.050;2022-09-09T05:58:32;1.67;;;1.30;;
9174;SDS011;54374;50.196;8.050;2022-09-09T06:01:00;1.42;;;1.20;;
9174;SDS011;54374;50.196;8.050;2022-09-09T06:03:30;3.88;;;1.63;;
9174;SDS011;54374;50.196;8.050;2022-09-09T06:05:58;2.30;;;1.35;;
9174;SDS011;54374;50.196;8.050;2022-09-09T06:08:26;2.67;;;1.55;;
9174;SDS011;54374;50.196;8.050;2022-09-09T06:10:53;2.05;;;1.70;;
9174;SDS011;54374;50.196;8.050;2022-09-09T06:13:28;2.97;;;1.30;;
9174;SDS011;54374;50.196;8.050;2022-09-09T06:15:57;2.17;;;1.77;;
9174;SDS011;54374;50.196;8.050;2022-09-09T06:18:26;7.05;;;1.50;;
9174;SDS011;54374;50.196;8.050;2022-09-09T06:20:55;3.83;;;1.52;;
9174;SDS011;54374;50.196;8.050;2022-09-09T06:23:24;8.10;;;1.80;;
9174;SDS011;54374;50.196;8.050;2022-09-09T06:26:00;1.30;;;1.20;;
9174;SDS011;54374;50.196;8.050;2022-09-09T06:28:31;3.00;;;2.03;;
9174;SDS011;54374;50.196;8.050;2022-09-09T06:31:00;3.43;;;1.60;;
9174;SDS011;54374;50.196;8.050;2022-09-09T06:33:30;2.20;;;1.50;;
9174;SDS011;54374;50.196;8.050;2022-09-09T06:36:01;4.50;;;1.40;;
9174;SDS011;54374;50.196;8.050;2022-09-09T06:38:31;2.13;;;1.47;;
9174;SDS011;54374;50.196;8.050;2022-09-09T06:40:59;7.88;;;2.03;;
9174;SDS011;54374;50.196;8.050;2022-09-09T06:43:28;2.20;;;1.85;;
9174;SDS011;54374;50.196;8.050;2022-09-09T06:45:55;8.10;;;2.23;;
9174;SDS011;54374;50.196;8.050;2022-09-09T06:48:25;3.47;;;2.00;;
9174;SDS011;54374;50.196;8.050;2022-09-09T06:51:00;13.13;;;2.17;;
9174;SDS011;54374;50.196;8.050;2022-09-09T06:53:29;2.83;;;1.80;;
9174;SDS011;54374;50.196;8.050;2022-09-09T06:55:59;3.53;;;1.70;;
9174;SDS011;54374;50.196;8.050;2022-09-09T06:58:28;7.93;;;2.60;;
9174;SDS011;54374;50.196;8.050;2022-09-09T07:01:02;5.60;;;2.10;;
9174;SDS011;54374;50.196;8.050;2022-09-09T07:03:31;4.03;;;1.70;;
9174;SDS011;54374;50.196;8.050;2022-09-09T07:06:00;3.30;;;1.80;;
9174;SDS011;54374;50.196;8.050;2022-09-09T07:08:29;3.80;;;1.50;;
9174;SDS011;54374;50.196;8.050;2022-09-09T07:11:01;3.43;;;1.43;;
9174;SDS011;54374;50.196;8.050;2022-09-09T07:13:31;2.30;;;1.67;;
9174;SDS011;54374;50.196;8.050;2022-09-09T07:16:02;6.07;;;1.70;;
9174;SDS011;54374;50.196;8.050;2022-09-09T07:18:32;4.10;;;2.17;;
9174;SDS011;54374;50.196;8.050;2022-09-09T07:21:00;4.63;;;2.13;;
9174;SDS011;54374;50.196;8.050;2022-09-09T07:23:28;4.30;;;2.07;;
9174;SDS011;54374;50.196;8.050;2022-09-09T07:25:55;4.53;;;1.70;;
9174;SDS011;54374;50.196;8.050;2022-09-09T07:28:23;4.00;;;1.37;;
9174;SDS011;54374;50.196;8.050;2022-09-09T07:30:54;7.00;;;1.77;;
9174;SDS011;54374;50.196;8.050;2022-09-09T07:33:22;2.63;;;1.33;;
9174;SDS011;54374;50.196;8.050;2022-09-09T07:35:51;2.23;;;2.00;;
9174;SDS011;54374;50.196;8.050;2022-09-09T07:38:19;4.37;;;1.57;;
9174;SDS011;54374;50.196;8.050;2022-09-09T07:40:48;2.80;;;1.80;;
9174;SDS011;54374;50.196;8.050;2022-09-09T07:43:15;3.43;;;2.03;;
9174;SDS011;54374;50.196;8.050;2022-09-09T07:45:44;2.13;;;1.73;;
9174;SDS011;54374;50.196;8.050;2022-09-09T07:48:12;5.13;;;1.70;;
9174;SDS011;54374;50.196;8.050;2022-09-09T07:50:39;2.97;;;1.53;;
9174;SDS011;54374;50.196;8.050;2022-09-09T07:53:09;6.30;;;2.03;;
9174;SDS011;54374;50.196;8.050;2022-09-09T07:55:36;2.13;;;1.80;;
9174;SDS011;54374;50.196;8.050;2022-09-09T07:58:03;5.07;;;2.27;;
9174;SDS011;54374;50.196;8.050;2022-09-09T08:00:30;3.67;;;1.83;;
9174;SDS011;54374;50.196;8.050;2022-09-09T08:02:59;6.23;;;1.80;;
9174;SDS011;54374;50.196;8.050;2022-09-09T08:05:29;2.37;;;1.70;;
9174;SDS011;54374;50.196;8.050;2022-09-09T08:07:56;4.00;;;2.00;;
9174;SDS011;54374;50.196;8.050;2022-09-09T08:10:25;10.70;;;2.00;;
9174;SDS011;54374;50.196;8.050;2022-09-09T08:12:54;4.87;;;1.90;;
9174;SDS011;54374;50.196;8.050;2022-09-09T08:15:21;7.60;;;1.43;;
9174;SDS011;54374;50.196;8.050;2022-09-09T08:17:48;1.83;;;1.50;;
9174;SDS011;54374;50.196;8.050;2022-09-09T08:20:15;4.00;;;1.60;;
9174;SDS011;54374;50.196;8.050;2022-09-09T08:22:45;9.33;;;1.67;;
9174;SDS011;54374;50.196;8.050;2022-09-09T08:25:13;2.03;;;1.67;;
9174;SDS011;54374;50.196;8.050;2022-09-09T08:27:42;3.50;;;1.50;;
9174;SDS011;54374;50.196;8.050;2022-09-09T08:30:11;3.17;;;1.50;;
9174;SDS011;54374;50.196;8.050;2022-09-09T08:32:39;9.67;;;1.80;;
9174;SDS011;54374;50.196;8.050;2022-09-09T08:35:07;1.23;;;1.13;;
9174;SDS011;54374;50.196;8.050;2022-09-09T08:37:35;3.40;;;2.23;;
9174;SDS011;54374;50.196;8.050;2022-09-09T08:40:02;4.00;;;1.70;;
9174;SDS011;54374;50.196;8.050;2022-09-09T08:42:35;6.73;;;1.90;;
9174;SDS011;54374;50.196;8.050;2022-09-09T08:45:30;2.93;;;1.30;;
9174;SDS011;54374;50.196;8.050;2022-09-09T08:48:06;2.63;;;1.60;;
9174;SDS011;54374;50.196;8.050;2022-09-09T08:50:46;5.70;;;2.10;;
9174;SDS011;54374;50.196;8.050;2022-09-09T08:53:22;2.00;;;1.60;;
9174;SDS011;54374;50.196;8.050;2022-09-09T08:55:54;4.10;;;1.83;;
9174;SDS011;54374;50.196;8.050;2022-09-09T08:58:54;4.20;;;1.60;;
9174;SDS011;54374;50.196;8.050;2022-09-09T09:01:52;6.00;;;1.57;;
9174;SDS011;54374;50.196;8.050;2022-09-09T09:04:43;5.13;;;1.57;;
9174;SDS011;54374;50.196;8.050;2022-09-09T09:07:21;4.00;;;1.70;;
9174;SDS011;54374;50.196;8.050;2022-09-09T09:09:57;4.87;;;1.60;;
9174;SDS011;54374;50.196;8.050;2022-09-09T09:12:35;2.23;;;1.40;;
9174;SDS011;54374;50.196;8.050;2022-09-09T09:15:11;3.23;;;1.40;;
9174;SDS011;54374;50.196;8.050;2022-09-09T09:17:50;2.60;;;1.60;;
9174;SDS011;54374;50.196;8.050;2022-09-09T09:20:18;3.43;;;1.43;;
9174;SDS011;54374;50.196;8.050;2022-09-09T09:22:52;4.83;;;2.30;;
9174;SDS011;54374;50.196;8.050;2022-09-09T09:25:25;6.23;;;1.40;;
9174;SDS011;54374;50.196;8.050;2022-09-09T09:27:59;2.83;;;1.43;;
9174;SDS011;54374;50.196;8.050;2022-09-09T09:30:34;2.63;;;1.23;;
9174;SDS011;54374;50.196;8.050;2022-09-09T09:33:11;3.10;;;1.60;;
9174;SDS011;54374;50.196;8.050;2022-09-09T09:35:43;5.10;;;1.07;;
9174;SDS011;54374;50.196;8.050;2022-09-09T09:38:16;2.93;;;1.80;;
9174;SDS011;54374;50.196;8.050;2022-09-09T09:40:49;1.93;;;1.17;;
9174;SDS011;54374;50.196;8.050;2022-09-09T09:43:20;4.50;;;1.10;;
9174;SDS011;54374;50.196;8.050;2022-09-09T09:45:56;3.53;;;1.33;;
9174;SDS011;54374;50.196;8.050;2022-09-09T09:48:26;5.67;;;1.60;;
9174;SDS011;54374;50.196;8.050;2022-09-09T09:50:54;2.73;;;1.00;;
9174;SDS011;54374;50.196;8.050;2022-09-09T09:53:25;9.43;;;1.47;;
9174;SDS011;54374;50.196;8.050;2022-09-09T09:55:56;3.80;;;0.80;;
9174;SDS011;54374;50.196;8.050;2022-09-09T09:58:27;4.50;;;0.90;;
9174;SDS011;54374;50.196;8.050;2022-09-09T10:00:59;2.50;;;0.93;;
9174;SDS011;54374;50.196;8.050;2022-09-09T10:03:31;2.73;;;0.90;;
9174;SDS011;54374;50.196;8.050;2022-09-09T10:06:03;3.30;;;1.20;;
9174;SDS011;54374;50.196;8.050;2022-09-09T10:08:33;2.63;;;1.00;;
9174;SDS011;54374;50.196;8.050;2022-09-09T10:11:18;3.20;;;0.80;;
9174;SDS011;54374;50.196;8.050;2022-09-09T10:13:56;6.63;;;1.00;;
9174;SDS011;54374;50.196;8.050;2022-09-09T10:16:38;2.50;;;0.80;;
9174;SDS011;54374;50.196;8.050;2022-09-09T10:19:16;4.13;;;0.90;;
9174;SDS011;54374;50.196;8.050;2022-09-09T10:21:57;9.20;;;1.30;;
9174;SDS011;54374;50.196;8.050;2022-09-09T10:24:51;1.57;;;1.00;;
9174;SDS011;54374;50.196;8.050;2022-09-09T10:27:33;1.60;;;0.90;;
9174;SDS011;54374;50.196;8.050;2022-09-09T10:30:09;5.17;;;0.87;;
9174;SDS011;54374;50.196;8.050;2022-09-09T10:32:45;1.83;;;0.70;;
9174;SDS011;54374;50.196;8.050;2022-09-09T10:35:24;1.70;;;0.60;;
9174;SDS011;54374;50.196;8.050;2022-09-09T10:38:14;3.43;;;0.70;;
9174;SDS011;54374;50.196;8.050;2022-09-09T10:40:58;4.87;;;1.10;;
9174;SDS011;54374;50.196;8.050;2022-09-09T10:43:42;2.20;;;0.83;;
9174;SDS011;54374;50.196;8.050;2022-09-09T10:46:20;1.97;;;0.80;;
9174;SDS011;54374;50.196;8.050;2022-09-09T10:49:01;8.33;;;2.47;;
9174;SDS011;54374;50.196;8.050;2022-09-09T10:51:42;6.70;;;1.93;;
9174;SDS011;54374;50.196;8.050;2022-09-09T10:54:21;0.87;;;0.87;;
9174;SDS011;54374;50.196;8.050;2022-09-09T10:56:58;3.67;;;0.77;;
9174;SDS011;54374;50.196;8.050;2022-09-09T10:59:31;0.77;;;0.70;;
9174;SDS011;54374;50.196;8.050;2022-09-09T11:02:10;2.60;;;0.80;;
9174;SDS011;54374;50.196;8.050;2022-09-09T11:04:44;2.20;;;0.93;;
9174;SDS011;54374;50.196;8.050;2022-09-09T11:07:21;0.83;;;0.60;;
9174;SDS011;54374;50.196;8.050;2022-09-09T11:09:54;1.00;;;0.70;;
9174;SDS011;54374;50.196;8.050;2022-09-09T11:12:28;4.53;;;0.87;;
9174;SDS011;54374;50.196;8.050;2022-09-09T11:14:57;1.50;;;0.83;;
9174;SDS011;54374;50.196;8.050;2022-09-09T11:17:33;1.87;;;0.70;;
9174;SDS011;54374;50.196;8.050;2022-09-09T11:20:10;2.83;;;0.80;;
9174;SDS011;54374;50.196;8.050;2022-09-09T11:22:42;2.00;;;0.60;;
9174;SDS011;54374;50.196;8.050;2022-09-09T11:25:14;2.73;;;1.00;;
9174;SDS011;54374;50.196;8.050;2022-09-09T11:27:48;0.60;;;0.60;;
9174;SDS011;54374;50.196;8.050;2022-09-09T11:30:30;2.50;;;1.23;;
9174;SDS011;54374;50.196;8.050;2022-09-09T11:33:25;2.00;;;0.70;;
9174;SDS011;54374;50.196;8.050;2022-09-09T11:36:25;2.73;;;0.77;;
9174;SDS011;54374;50.196;8.050;2022-09-09T11:39:12;2.60;;;0.60;;
9174;SDS011;54374;50.196;8.050;2022-09-09T11:42:04;2.30;;;1.00;;
9174;SDS011;54374;50.196;8.050;2022-09-09T11:44:33;7.17;;;0.80;;
9174;SDS011;54374;50.196;8.050;2022-09-09T11:47:01;2.93;;;0.67;;
9174;SDS011;54374;50.196;8.050;2022-09-09T11:49:29;3.07;;;0.87;;
9174;SDS011;54374;50.196;8.050;2022-09-09T11:52:10;1.70;;;0.60;;
9174;SDS011;54374;50.196;8.050;2022-09-09T11:54:46;2.97;;;0.80;;
9174;SDS011;54374;50.196;8.050;2022-09-09T11:57:23;1.63;;;0.60;;
9174;SDS011;54374;50.196;8.050;2022-09-09T11:59:53;2.00;;;0.70;;
9174;SDS011;54374;50.196;8.050;2022-09-09T12:02:22;1.90;;;0.70;;
9174;SDS011;54374;50.196;8.050;2022-09-09T12:04:55;1.33;;;0.53;;
9174;SDS011;54374;50.196;8.050;2022-09-09T12:07:25;3.00;;;1.63;;
9174;SDS011;54374;50.196;8.050;2022-09-09T12:10:03;1.30;;;0.60;;
9174;SDS011;54374;50.196;8.050;2022-09-09T12:12:33;1.73;;;0.70;;
9174;SDS011;54374;50.196;8.050;2022-09-09T12:15:17;1.37;;;0.80;;
9174;SDS011;54374;50.196;8.050;2022-09-09T12:17:46;3.13;;;0.80;;
9174;SDS011;54374;50.196;8.050;2022-09-09T12:20:17;2.57;;;0.90;;
9174;SDS011;54374;50.196;8.050;2022-09-09T12:22:50;2.50;;;0.80;;
9174;SDS011;54374;50.196;8.050;2022-09-09T12:25:52;1.17;;;0.70;;
9174;SDS011;54374;50.196;8.050;2022-09-09T12:28:26;1.23;;;0.60;;
9174;SDS011;54374;50.196;8.050;2022-09-09T12:31:04;1.63;;;0.60;;
9174;SDS011;54374;50.196;8.050;2022-09-09T12:33:36;5.73;;;0.80;;
9174;SDS011;54374;50.196;8.050;2022-09-09T12:36:09;2.30;;;0.70;;
9174;SDS011;54374;50.196;8.050;2022-09-09T12:38:40;4.37;;;1.20;;
9174;SDS011;54374;50.196;8.050;2022-09-09T12:41:17;2.30;;;0.50;;
9174;SDS011;54374;50.196;8.050;2022-09-09T12:43:46;2.57;;;0.90;;
9174;SDS011;54374;50.196;8.050;2022-09-09T12:46:15;3.20;;;0.93;;
9174;SDS011;54374;50.196;8.050;2022-09-09T12:48:48;1.27;;;0.70;;
9174;SDS011;54374;50.196;8.050;2022-09-09T12:51:19;4.00;;;0.73;;
9174;SDS011;54374;50.196;8.050;2022-09-09T12:53:51;1.43;;;1.13;;
9174;SDS011;54374;50.196;8.050;2022-09-09T12:56:20;1.80;;;0.80;;
9174;SDS011;54374;50.196;8.050;2022-09-09T12:58:50;4.97;;;0.90;;
9174;SDS011;54374;50.196;8.050;2022-09-09T13:01:20;2.67;;;0.70;;
9174;SDS011;54374;50.196;8.050;2022-09-09T13:03:50;3.33;;;0.90;;
9174;SDS011;54374;50.196;8.050;2022-09-09T13:06:19;3.40;;;0.80;;
9174;SDS011;54374;50.196;8.050;2022-09-09T13:08:49;1.37;;;0.80;;
9174;SDS011;54374;50.196;8.050;2022-09-09T13:11:17;1.13;;;0.90;;
9174;SDS011;54374;50.196;8.050;2022-09-09T13:13:52;2.93;;;0.80;;
9174;SDS011;54374;50.196;8.050;2022-09-09T13:16:22;3.80;;;0.80;;
9174;SDS011;54374;50.196;8.050;2022-09-09T13:18:52;1.30;;;0.70;;
9174;SDS011;54374;50.196;8.050;2022-09-09T13:21:30;0.93;;;0.67;;
9174;SDS011;54374;50.196;8.050;2022-09-09T13:23:59;1.90;;;0.90;;
9174;SDS011;54374;50.196;8.050;2022-09-09T13:26:29;1.10;;;0.70;;
9174;SDS011;54374;50.196;8.050;2022-09-09T13:29:07;1.93;;;0.90;;
9174;SDS011;54374;50.196;8.050;2022-09-09T13:31:44;2.80;;;1.03;;
9174;SDS011;54374;50.196;8.050;2022-09-09T13:34:12;1.93;;;0.50;;
9174;SDS011;54374;50.196;8.050;2022-09-09T13:36:40;2.70;;;0.80;;
9174;SDS011;54374;50.196;8.050;2022-09-09T13:39:13;1.47;;;0.50;;
9174;SDS011;54374;50.196;8.050;2022-09-09T13:41:45;1.03;;;0.50;;
9174;SDS011;54374;50.196;8.050;2022-09-09T13:44:14;0.70;;;0.70;;
9174;SDS011;54374;50.196;8.050;2022-09-09T13:46:58;8.87;;;1.00;;
9174;SDS011;54374;50.196;8.050;2022-09-09T13:49:28;1.43;;;0.83;;
9174;SDS011;54374;50.196;8.050;2022-09-09T13:52:03;4.63;;;0.70;;
9174;SDS011;54374;50.196;8.050;2022-09-09T13:54:32;2.10;;;0.83;;
9174;SDS011;54374;50.196;8.050;2022-09-09T13:57:02;2.20;;;0.73;;
9174;SDS011;54374;50.196;8.050;2022-09-09T13:59:30;5.23;;;0.90;;
9174;SDS011;54374;50.196;8.050;2022-09-09T14:01:57;2.33;;;0.90;;
9174;SDS011;54374;50.196;8.050;2022-09-09T14:04:27;3.83;;;1.03;;
9174;SDS011;54374;50.196;8.050;2022-09-09T14:06:55;1.67;;;0.80;;
9174;SDS011;54374;50.196;8.050;2022-09-09T14:09:23;1.67;;;0.70;;
9174;SDS011;54374;50.196;8.050;2022-09-09T14:11:50;2.83;;;1.00;;
9174;SDS011;54374;50.196;8.050;2022-09-09T14:14:19;1.90;;;1.30;;
9174;SDS011;54374;50.196;8.050;2022-09-09T14:16:45;3.60;;;1.07;;
9174;SDS011;54374;50.196;8.050;2022-09-09T14:19:13;5.90;;;0.97;;
9174;SDS011;54374;50.196;8.050;2022-09-09T14:21:40;0.83;;;0.80;;
9174;SDS011;54374;50.196;8.050;2022-09-09T14:24:07;2.20;;;0.80;;
9174;SDS011;54374;50.196;8.050;2022-09-09T14:26:34;3.53;;;0.87;;
9174;SDS011;54374;50.196;8.050;2022-09-09T14:29:02;4.57;;;1.17;;
9174;SDS011;54374;50.196;8.050;2022-09-09T14:31:32;3.17;;;0.90;;
9174;SDS011;54374;50.196;8.050;2022-09-09T14:33:59;3.00;;;1.13;;
9174;SDS011;54374;50.196;8.050;2022-09-09T14:36:26;1.23;;;0.70;;
9174;SDS011;54374;50.196;8.050;2022-09-09T14:38:53;1.50;;;0.80;;
9174;SDS011;54374;50.196;8.050;2022-09-09T14:41:20;4.07;;;1.10;;
9174;SDS011;54374;50.196;8.050;2022-09-09T14:43:48;2.40;;;0.97;;
9174;SDS011;54374;50.196;8.050;2022-09-09T14:46:17;3.37;;;1.17;;
9174;SDS011;54374;50.196;8.050;2022-09-09T14:48:46;3.63;;;1.63;;
9174;SDS011;54374;50.196;8.050;2022-09-09T14:51:15;2.97;;;1.93;;
9174;SDS011;54374;50.196;8.050;2022-09-09T14:53:45;2.50;;;1.23;;
9174;SDS011;54374;50.196;8.050;2022-09-09T14:56:13;2.35;;;0.73;;
9174;SDS011;54374;50.196;8.050;2022-09-09T14:58:42;5.30;;;1.03;;
9174;SDS011;54374;50.196;8.050;2022-09-09T15:01:10;2.50;;;0.90;;
9174;SDS011;54374;50.196;8.050;2022-09-09T15:03:38;3.53;;;1.20;;
9174;SDS011;54374;50.196;8.050;2022-09-09T15:06:08;7.23;;;0.83;;
9174;SDS011;54374;50.196;8.050;2022-09-09T15:08:37;6.50;;;1.47;;
9174;SDS011;54374;50.196;8.050;2022-09-09T15:11:05;5.95;;;0.98;;
9174;SDS011;54374;50.196;8.050;2022-09-09T15:13:33;3.70;;;0.80;;
9174;SDS011;54374;50.196;8.050;2022-09-09T15:16:05;0.88;;;0.80;;
9174;SDS011;54374;50.196;8.050;2022-09-09T15:18:33;3.43;;;0.87;;
9174;SDS011;54374;50.196;8.050;2022-09-09T15:21:01;2.60;;;0.70;;
9174;SDS011;54374;50.196;8.050;2022-09-09T15:23:32;3.37;;;0.90;;
9174;SDS011;54374;50.196;8.050;2022-09-09T15:26:01;4.23;;;0.90;;
9174;SDS011;54374;50.196;8.050;2022-09-09T15:28:29;1.60;;;0.80;;
9174;SDS011;54374;50.196;8.050;2022-09-09T15:30:58;4.47;;;0.90;;
9174;SDS011;54374;50.196;8.050;2022-09-09T15:33:32;2.03;;;0.70;;
9174;SDS011;54374;50.196;8.050;2022-09-09T15:36:11;5.13;;;1.23;;